sensor_id;sensor_type;location;lat;lon;timestamp;P1;durP1;ratioP1;P2;durP2;ratioP2
13753;SDS011;6948;51.216;6.778;2023-08-21T00:00:02;6.03;;;2.40;;
13753;SDS011;6948;51.216;6.778;2023-08-21T00:02:29;4.73;;;2.40;;
13753;SDS011;6948;51.216;6.778;2023-08-21T00:04:55;4.70;;;2.47;;
13753;SDS011;6948;51.216;6.778;2023-08-21T00:07:22;4.30;;;2.40;;
13753;SDS011;6948;51.216;6.778;2023-08-21T00:09:48;4.57;;;2.20;;
13753;SDS011;6948;51.216;6.778;2023-08-21T00:12:15;6.07;;;2.37;;
13753;SDS011;6948;51.216;6.778;2023-08-21T00:14:41;6.10;;;2.27;;
13753;SDS011;6948;51.216;6.778;2023-08-21T00:17:08;4.60;;;2.38;;
13753;SDS011;6948;51.216;6.778;2023-08-21T00:19:34;5.82;;;2.25;;
13753;SDS011;6948;51.216;6.778;2023-08-21T00:22:00;4.65;;;2.40;;
13753;SDS011;6948;51.216;6.778;2023-08-21T00:24:26;5.35;;;2.58;;
13753;SDS011;6948;51.216;6.778;2023-08-21T00:26:52;4.90;;;2.53;;
13753;SDS011;6948;51.216;6.778;2023-08-21T00:29:19;6.33;;;2.60;;
13753;SDS011;6948;51.216;6.778;2023-08-21T00:31:45;4.97;;;2.57;;
13753;SDS011;6948;51.216;6.778;2023-08-21T00:34:11;6.40;;;2.60;;
13753;SDS011;6948;51.216;6.778;2023-08-21T00:36:37;6.80;;;3.95;;
13753;SDS011;6948;51.216;6.778;2023-08-21T00:39:03;6.63;;;2.78;;
13753;SDS011;6948;51.216;6.778;2023-08-21T00:41:29;9.38;;;3.17;;
13753;SDS011;6948;51.216;6.778;2023-08-21T00:43:57;7.13;;;2.97;;
13753;SDS011;6948;51.216;6.778;2023-08-21T00:46:23;6.90;;;3.13;;
13753;SDS011;6948;51.216;6.778;2023-08-21T00:48:49;4.93;;;2.73;;
13753;SDS011;6948;51.216;6.778;2023-08-21T00:51:15;7.20;;;2.90;;
13753;SDS011;6948;51.216;6.778;2023-08-21T00:53:42;5.23;;;2.87;;
13753;SDS011;6948;51.216;6.778;2023-08-21T00:56:08;10.03;;;3.10;;
13753;SDS011;6948;51.216;6.778;2023-08-21T00:58:34;6.37;;;2.70;;
13753;SDS011;6948;51.216;6.778;2023-08-21T01:01:01;7.07;;;2.73;;
13753;SDS011;6948;51.216;6.778;2023-08-21T01:03:29;7.27;;;3.03;;
13753;SDS011;6948;51.216;6.778;2023-08-21T01:05:55;6.90;;;2.70;;
13753;SDS011;6948;51.216;6.778;2023-08-21T01:08:25;6.10;;;2.70;;
13753;SDS011;6948;51.216;6.778;2023-08-21T01:13:59;4.80;;;2.60;;
13753;SDS011;6948;51.216;6.778;2023-08-21T01:16:25;8.27;;;3.00;;
13753;SDS011;6948;51.216;6.778;2023-08-21T01:18:51;4.83;;;2.70;;
13753;SDS011;6948;51.216;6.778;2023-08-21T01:21:19;6.67;;;2.73;;
13753;SDS011;6948;51.216;6.778;2023-08-21T01:23:45;7.73;;;2.63;;
13753;SDS011;6948;51.216;6.778;2023-08-21T01:26:11;7.50;;;2.80;;
13753;SDS011;6948;51.216;6.778;2023-08-21T01:28:37;7.93;;;2.80;;
13753;SDS011;6948;51.216;6.778;2023-08-21T01:33:42;6.57;;;2.83;;
13753;SDS011;6948;51.216;6.778;2023-08-21T01:36:11;5.83;;;2.80;;
13753;SDS011;6948;51.216;6.778;2023-08-21T01:38:37;6.17;;;2.60;;
13753;SDS011;6948;51.216;6.778;2023-08-21T01:41:03;6.90;;;3.00;;
13753;SDS011;6948;51.216;6.778;2023-08-21T01:43:29;6.07;;;3.10;;
13753;SDS011;6948;51.216;6.778;2023-08-21T01:45:55;7.83;;;3.20;;
13753;SDS011;6948;51.216;6.778;2023-08-21T01:48:21;5.37;;;2.53;;
13753;SDS011;6948;51.216;6.778;2023-08-21T01:50:47;5.50;;;2.87;;
13753;SDS011;6948;51.216;6.778;2023-08-21T01:53:13;5.93;;;2.87;;
13753;SDS011;6948;51.216;6.778;2023-08-21T01:55:39;6.23;;;2.70;;
13753;SDS011;6948;51.216;6.778;2023-08-21T01:58:05;8.17;;;2.83;;
13753;SDS011;6948;51.216;6.778;2023-08-21T02:00:32;9.07;;;2.40;;
13753;SDS011;6948;51.216;6.778;2023-08-21T02:02:57;7.83;;;3.10;;
13753;SDS011;6948;51.216;6.778;2023-08-21T02:05:24;6.23;;;2.70;;
13753;SDS011;6948;51.216;6.778;2023-08-21T02:07:50;7.23;;;2.90;;
13753;SDS011;6948;51.216;6.778;2023-08-21T02:10:16;6.40;;;2.90;;
13753;SDS011;6948;51.216;6.778;2023-08-21T02:12:42;6.60;;;2.80;;
13753;SDS011;6948;51.216;6.778;2023-08-21T02:15:08;8.50;;;2.77;;
13753;SDS011;6948;51.216;6.778;2023-08-21T02:17:35;6.57;;;3.00;;
13753;SDS011;6948;51.216;6.778;2023-08-21T02:20:01;6.27;;;3.00;;
13753;SDS011;6948;51.216;6.778;2023-08-21T02:22:27;8.47;;;3.00;;
13753;SDS011;6948;51.216;6.778;2023-08-21T02:24:53;7.67;;;3.17;;
13753;SDS011;6948;51.216;6.778;2023-08-21T02:27:19;6.80;;;3.37;;
13753;SDS011;6948;51.216;6.778;2023-08-21T02:29:45;5.50;;;2.90;;
13753;SDS011;6948;51.216;6.778;2023-08-21T02:32:11;6.10;;;3.00;;
13753;SDS011;6948;51.216;6.778;2023-08-21T02:34:38;6.87;;;2.60;;
13753;SDS011;6948;51.216;6.778;2023-08-21T02:37:04;8.17;;;2.80;;
13753;SDS011;6948;51.216;6.778;2023-08-21T02:39:30;6.10;;;2.70;;
13753;SDS011;6948;51.216;6.778;2023-08-21T02:41:56;7.97;;;3.13;;
13753;SDS011;6948;51.216;6.778;2023-08-21T02:44:23;5.60;;;2.70;;
13753;SDS011;6948;51.216;6.778;2023-08-21T02:46:49;8.30;;;3.00;;
13753;SDS011;6948;51.216;6.778;2023-08-21T02:49:15;7.43;;;3.10;;
13753;SDS011;6948;51.216;6.778;2023-08-21T02:51:41;6.27;;;3.53;;
13753;SDS011;6948;51.216;6.778;2023-08-21T02:54:07;8.43;;;3.63;;
13753;SDS011;6948;51.216;6.778;2023-08-21T02:56:34;8.40;;;3.87;;
13753;SDS011;6948;51.216;6.778;2023-08-21T02:59:00;8.00;;;3.83;;
13753;SDS011;6948;51.216;6.778;2023-08-21T03:01:26;7.67;;;3.30;;
13753;SDS011;6948;51.216;6.778;2023-08-21T03:03:52;8.03;;;3.67;;
13753;SDS011;6948;51.216;6.778;2023-08-21T03:06:18;7.50;;;3.47;;
13753;SDS011;6948;51.216;6.778;2023-08-21T03:08:44;6.63;;;3.23;;
13753;SDS011;6948;51.216;6.778;2023-08-21T03:11:10;7.67;;;3.20;;
13753;SDS011;6948;51.216;6.778;2023-08-21T03:13:36;7.27;;;3.00;;
13753;SDS011;6948;51.216;6.778;2023-08-21T03:16:02;7.23;;;3.10;;
13753;SDS011;6948;51.216;6.778;2023-08-21T03:18:29;6.80;;;3.33;;
13753;SDS011;6948;51.216;6.778;2023-08-21T03:20:56;6.97;;;3.30;;
13753;SDS011;6948;51.216;6.778;2023-08-21T03:23:22;5.67;;;2.63;;
13753;SDS011;6948;51.216;6.778;2023-08-21T03:25:51;7.10;;;2.60;;
13753;SDS011;6948;51.216;6.778;2023-08-21T03:28:18;6.07;;;2.60;;
13753;SDS011;6948;51.216;6.778;2023-08-21T03:30:44;7.20;;;2.80;;
13753;SDS011;6948;51.216;6.778;2023-08-21T03:33:10;5.40;;;2.50;;
13753;SDS011;6948;51.216;6.778;2023-08-21T03:35:36;7.80;;;2.83;;
13753;SDS011;6948;51.216;6.778;2023-08-21T03:38:02;7.67;;;2.63;;
13753;SDS011;6948;51.216;6.778;2023-08-21T03:40:28;8.13;;;2.90;;
13753;SDS011;6948;51.216;6.778;2023-08-21T03:42:54;5.87;;;2.60;;
13753;SDS011;6948;51.216;6.778;2023-08-21T03:45:20;5.90;;;2.50;;
13753;SDS011;6948;51.216;6.778;2023-08-21T03:47:46;7.57;;;2.63;;
13753;SDS011;6948;51.216;6.778;2023-08-21T03:50:12;5.23;;;2.73;;
13753;SDS011;6948;51.216;6.778;2023-08-21T03:52:38;7.30;;;2.43;;
13753;SDS011;6948;51.216;6.778;2023-08-21T03:55:04;4.30;;;2.70;;
13753;SDS011;6948;51.216;6.778;2023-08-21T03:57:30;6.63;;;2.70;;
13753;SDS011;6948;51.216;6.778;2023-08-21T03:59:56;10.70;;;2.83;;
13753;SDS011;6948;51.216;6.778;2023-08-21T04:02:23;6.50;;;2.57;;
13753;SDS011;6948;51.216;6.778;2023-08-21T04:04:48;7.70;;;3.10;;
13753;SDS011;6948;51.216;6.778;2023-08-21T04:07:15;6.43;;;2.67;;
13753;SDS011;6948;51.216;6.778;2023-08-21T04:09:41;7.60;;;2.90;;
13753;SDS011;6948;51.216;6.778;2023-08-21T04:12:07;5.87;;;2.43;;
13753;SDS011;6948;51.216;6.778;2023-08-21T04:14:33;7.27;;;2.70;;
13753;SDS011;6948;51.216;6.778;2023-08-21T04:16:59;6.17;;;2.80;;
13753;SDS011;6948;51.216;6.778;2023-08-21T04:19:25;5.73;;;3.00;;
13753;SDS011;6948;51.216;6.778;2023-08-21T04:21:55;5.50;;;2.67;;
13753;SDS011;6948;51.216;6.778;2023-08-21T04:24:21;6.10;;;2.70;;
13753;SDS011;6948;51.216;6.778;2023-08-21T04:26:47;6.27;;;2.60;;
13753;SDS011;6948;51.216;6.778;2023-08-21T04:29:13;6.50;;;2.70;;
13753;SDS011;6948;51.216;6.778;2023-08-21T04:31:39;8.03;;;2.60;;
13753;SDS011;6948;51.216;6.778;2023-08-21T04:34:05;6.57;;;2.93;;
13753;SDS011;6948;51.216;6.778;2023-08-21T04:36:31;5.97;;;3.03;;
13753;SDS011;6948;51.216;6.778;2023-08-21T04:38:57;6.77;;;2.80;;
13753;SDS011;6948;51.216;6.778;2023-08-21T04:41:23;5.70;;;2.87;;
13753;SDS011;6948;51.216;6.778;2023-08-21T04:43:49;6.50;;;2.80;;
13753;SDS011;6948;51.216;6.778;2023-08-21T04:46:15;5.47;;;2.40;;
13753;SDS011;6948;51.216;6.778;2023-08-21T04:48:41;5.30;;;2.63;;
13753;SDS011;6948;51.216;6.778;2023-08-21T04:51:08;5.83;;;2.67;;
13753;SDS011;6948;51.216;6.778;2023-08-21T04:53:34;7.00;;;2.80;;
13753;SDS011;6948;51.216;6.778;2023-08-21T04:56:00;8.13;;;3.00;;
13753;SDS011;6948;51.216;6.778;2023-08-21T04:58:26;5.30;;;3.03;;
13753;SDS011;6948;51.216;6.778;2023-08-21T05:00:52;6.27;;;2.80;;
13753;SDS011;6948;51.216;6.778;2023-08-21T05:03:18;5.20;;;2.70;;
13753;SDS011;6948;51.216;6.778;2023-08-21T05:05:51;7.97;;;2.77;;
13753;SDS011;6948;51.216;6.778;2023-08-21T05:08:18;8.37;;;2.60;;
13753;SDS011;6948;51.216;6.778;2023-08-21T05:10:44;7.30;;;2.97;;
13753;SDS011;6948;51.216;6.778;2023-08-21T05:13:10;7.67;;;3.20;;
13753;SDS011;6948;51.216;6.778;2023-08-21T05:15:36;9.37;;;3.20;;
13753;SDS011;6948;51.216;6.778;2023-08-21T05:18:02;10.70;;;3.93;;
13753;SDS011;6948;51.216;6.778;2023-08-21T05:20:28;8.50;;;3.67;;
13753;SDS011;6948;51.216;6.778;2023-08-21T05:22:54;7.53;;;2.90;;
13753;SDS011;6948;51.216;6.778;2023-08-21T05:25:20;8.10;;;3.20;;
13753;SDS011;6948;51.216;6.778;2023-08-21T05:27:47;9.73;;;3.00;;
13753;SDS011;6948;51.216;6.778;2023-08-21T05:30:13;6.80;;;3.17;;
13753;SDS011;6948;51.216;6.778;2023-08-21T05:32:40;6.00;;;2.95;;
13753;SDS011;6948;51.216;6.778;2023-08-21T05:35:06;8.98;;;3.50;;
13753;SDS011;6948;51.216;6.778;2023-08-21T05:37:33;7.90;;;3.00;;
13753;SDS011;6948;51.216;6.778;2023-08-21T05:39:59;6.90;;;3.03;;
13753;SDS011;6948;51.216;6.778;2023-08-21T05:42:25;6.17;;;2.97;;
13753;SDS011;6948;51.216;6.778;2023-08-21T05:44:51;10.93;;;6.47;;
13753;SDS011;6948;51.216;6.778;2023-08-21T05:47:17;10.63;;;3.20;;
13753;SDS011;6948;51.216;6.778;2023-08-21T05:49:43;7.17;;;3.60;;
13753;SDS011;6948;51.216;6.778;2023-08-21T05:52:09;8.57;;;3.17;;
13753;SDS011;6948;51.216;6.778;2023-08-21T05:54:35;6.72;;;3.13;;
13753;SDS011;6948;51.216;6.778;2023-08-21T05:57:02;9.97;;;3.50;;
13753;SDS011;6948;51.216;6.778;2023-08-21T05:59:30;13.70;;;4.00;;
13753;SDS011;6948;51.216;6.778;2023-08-21T06:01:56;7.07;;;3.37;;
13753;SDS011;6948;51.216;6.778;2023-08-21T06:04:22;7.90;;;3.00;;
13753;SDS011;6948;51.216;6.778;2023-08-21T06:06:49;8.15;;;3.25;;
13753;SDS011;6948;51.216;6.778;2023-08-21T06:09:15;10.02;;;3.53;;
13753;SDS011;6948;51.216;6.778;2023-08-21T06:11:42;8.48;;;3.30;;
13753;SDS011;6948;51.216;6.778;2023-08-21T06:14:08;7.68;;;3.00;;
13753;SDS011;6948;51.216;6.778;2023-08-21T06:16:34;7.43;;;3.42;;
13753;SDS011;6948;51.216;6.778;2023-08-21T06:19:01;6.22;;;3.13;;
13753;SDS011;6948;51.216;6.778;2023-08-21T06:21:27;9.77;;;3.83;;
13753;SDS011;6948;51.216;6.778;2023-08-21T06:23:53;7.60;;;3.40;;
13753;SDS011;6948;51.216;6.778;2023-08-21T06:26:19;10.93;;;7.18;;
13753;SDS011;6948;51.216;6.778;2023-08-21T06:28:45;8.50;;;5.05;;
13753;SDS011;6948;51.216;6.778;2023-08-21T06:31:11;8.40;;;5.38;;
13753;SDS011;6948;51.216;6.778;2023-08-21T06:33:37;7.78;;;4.30;;
13753;SDS011;6948;51.216;6.778;2023-08-21T06:36:03;11.50;;;5.50;;
13753;SDS011;6948;51.216;6.778;2023-08-21T06:38:29;7.22;;;5.30;;
13753;SDS011;6948;51.216;6.778;2023-08-21T06:40:55;10.38;;;4.70;;
13753;SDS011;6948;51.216;6.778;2023-08-21T06:43:21;12.50;;;4.15;;
13753;SDS011;6948;51.216;6.778;2023-08-21T06:45:47;5.85;;;3.83;;
13753;SDS011;6948;51.216;6.778;2023-08-21T06:48:13;9.77;;;3.92;;
13753;SDS011;6948;51.216;6.778;2023-08-21T06:50:39;11.32;;;4.25;;
13753;SDS011;6948;51.216;6.778;2023-08-21T06:53:05;8.30;;;4.47;;
13753;SDS011;6948;51.216;6.778;2023-08-21T06:55:31;7.50;;;4.07;;
13753;SDS011;6948;51.216;6.778;2023-08-21T06:57:57;9.70;;;3.75;;
13753;SDS011;6948;51.216;6.778;2023-08-21T07:00:23;8.57;;;4.03;;
13753;SDS011;6948;51.216;6.778;2023-08-21T07:02:50;12.15;;;4.00;;
13753;SDS011;6948;51.216;6.778;2023-08-21T07:05:16;8.80;;;3.55;;
13753;SDS011;6948;51.216;6.778;2023-08-21T07:07:42;9.18;;;3.80;;
13753;SDS011;6948;51.216;6.778;2023-08-21T07:10:08;10.85;;;3.75;;
13753;SDS011;6948;51.216;6.778;2023-08-21T07:12:34;9.75;;;3.35;;
13753;SDS011;6948;51.216;6.778;2023-08-21T07:15:00;7.03;;;3.70;;
13753;SDS011;6948;51.216;6.778;2023-08-21T07:17:26;6.22;;;3.13;;
13753;SDS011;6948;51.216;6.778;2023-08-21T07:19:52;8.98;;;3.70;;
13753;SDS011;6948;51.216;6.778;2023-08-21T07:22:19;11.07;;;3.80;;
13753;SDS011;6948;51.216;6.778;2023-08-21T07:24:45;8.50;;;3.65;;
13753;SDS011;6948;51.216;6.778;2023-08-21T07:27:11;9.95;;;4.00;;
13753;SDS011;6948;51.216;6.778;2023-08-21T07:29:38;7.03;;;3.30;;
13753;SDS011;6948;51.216;6.778;2023-08-21T07:32:04;6.93;;;3.60;;
13753;SDS011;6948;51.216;6.778;2023-08-21T07:34:30;9.80;;;3.30;;
13753;SDS011;6948;51.216;6.778;2023-08-21T07:36:56;7.72;;;3.55;;
13753;SDS011;6948;51.216;6.778;2023-08-21T07:39:22;8.93;;;3.35;;
13753;SDS011;6948;51.216;6.778;2023-08-21T07:41:48;7.65;;;3.50;;
13753;SDS011;6948;51.216;6.778;2023-08-21T07:44:15;7.15;;;3.53;;
13753;SDS011;6948;51.216;6.778;2023-08-21T07:46:41;8.43;;;3.38;;
13753;SDS011;6948;51.216;6.778;2023-08-21T07:49:07;9.23;;;3.50;;
13753;SDS011;6948;51.216;6.778;2023-08-21T07:51:33;9.32;;;3.70;;
13753;SDS011;6948;51.216;6.778;2023-08-21T07:53:59;7.57;;;3.97;;
13753;SDS011;6948;51.216;6.778;2023-08-21T07:56:25;9.05;;;3.42;;
13753;SDS011;6948;51.216;6.778;2023-08-21T07:58:51;8.52;;;3.50;;
13753;SDS011;6948;51.216;6.778;2023-08-21T08:01:17;10.55;;;3.42;;
13753;SDS011;6948;51.216;6.778;2023-08-21T08:03:45;7.20;;;3.33;;
13753;SDS011;6948;51.216;6.778;2023-08-21T08:06:12;8.15;;;3.60;;
13753;SDS011;6948;51.216;6.778;2023-08-21T08:08:38;10.23;;;4.07;;
13753;SDS011;6948;51.216;6.778;2023-08-21T08:11:04;8.07;;;3.58;;
13753;SDS011;6948;51.216;6.778;2023-08-21T08:13:31;6.05;;;3.50;;
13753;SDS011;6948;51.216;6.778;2023-08-21T08:15:57;6.88;;;3.33;;
13753;SDS011;6948;51.216;6.778;2023-08-21T08:18:23;7.43;;;3.30;;
13753;SDS011;6948;51.216;6.778;2023-08-21T08:20:49;7.45;;;3.33;;
13753;SDS011;6948;51.216;6.778;2023-08-21T08:23:15;11.60;;;3.40;;
13753;SDS011;6948;51.216;6.778;2023-08-21T08:25:41;7.68;;;3.78;;
13753;SDS011;6948;51.216;6.778;2023-08-21T08:28:08;9.65;;;3.67;;
13753;SDS011;6948;51.216;6.778;2023-08-21T08:30:34;11.65;;;3.65;;
13753;SDS011;6948;51.216;6.778;2023-08-21T08:33:00;6.32;;;3.22;;
13753;SDS011;6948;51.216;6.778;2023-08-21T08:35:26;6.00;;;3.40;;
13753;SDS011;6948;51.216;6.778;2023-08-21T08:37:52;10.52;;;3.38;;
13753;SDS011;6948;51.216;6.778;2023-08-21T08:40:18;9.82;;;3.72;;
13753;SDS011;6948;51.216;6.778;2023-08-21T08:42:44;9.55;;;3.42;;
13753;SDS011;6948;51.216;6.778;2023-08-21T08:45:12;8.27;;;3.58;;
13753;SDS011;6948;51.216;6.778;2023-08-21T08:47:39;8.73;;;3.75;;
13753;SDS011;6948;51.216;6.778;2023-08-21T08:50:06;6.88;;;3.47;;
13753;SDS011;6948;51.216;6.778;2023-08-21T08:52:35;5.78;;;3.63;;
13753;SDS011;6948;51.216;6.778;2023-08-21T08:55:02;7.78;;;3.60;;
13753;SDS011;6948;51.216;6.778;2023-08-21T08:57:29;7.15;;;3.38;;
13753;SDS011;6948;51.216;6.778;2023-08-21T08:59:55;8.13;;;4.20;;
13753;SDS011;6948;51.216;6.778;2023-08-21T09:02:22;7.10;;;4.43;;
13753;SDS011;6948;51.216;6.778;2023-08-21T09:04:49;8.70;;;3.72;;
13753;SDS011;6948;51.216;6.778;2023-08-21T09:07:16;6.47;;;3.20;;
13753;SDS011;6948;51.216;6.778;2023-08-21T09:09:45;7.03;;;3.35;;
13753;SDS011;6948;51.216;6.778;2023-08-21T09:12:12;10.52;;;3.22;;
13753;SDS011;6948;51.216;6.778;2023-08-21T09:14:39;7.75;;;3.50;;
13753;SDS011;6948;51.216;6.778;2023-08-21T09:17:05;9.32;;;3.33;;
13753;SDS011;6948;51.216;6.778;2023-08-21T09:19:32;7.97;;;3.60;;
13753;SDS011;6948;51.216;6.778;2023-08-21T09:21:58;9.30;;;3.58;;
13753;SDS011;6948;51.216;6.778;2023-08-21T09:24:24;8.05;;;3.35;;
13753;SDS011;6948;51.216;6.778;2023-08-21T09:26:50;5.95;;;3.20;;
13753;SDS011;6948;51.216;6.778;2023-08-21T09:29:17;8.43;;;3.60;;
13753;SDS011;6948;51.216;6.778;2023-08-21T09:31:44;5.68;;;3.42;;
13753;SDS011;6948;51.216;6.778;2023-08-21T09:34:22;6.82;;;3.50;;
13753;SDS011;6948;51.216;6.778;2023-08-21T09:36:55;6.63;;;3.45;;
13753;SDS011;6948;51.216;6.778;2023-08-21T09:39:21;7.00;;;3.15;;
13753;SDS011;6948;51.216;6.778;2023-08-21T09:41:55;8.77;;;3.90;;
13753;SDS011;6948;51.216;6.778;2023-08-21T09:44:21;7.13;;;3.75;;
13753;SDS011;6948;51.216;6.778;2023-08-21T09:46:48;7.25;;;3.67;;
13753;SDS011;6948;51.216;6.778;2023-08-21T09:49:15;8.48;;;4.18;;
13753;SDS011;6948;51.216;6.778;2023-08-21T09:51:42;4.80;;;3.45;;
13753;SDS011;6948;51.216;6.778;2023-08-21T09:54:10;6.68;;;4.28;;
13753;SDS011;6948;51.216;6.778;2023-08-21T09:56:37;7.35;;;4.03;;
13753;SDS011;6948;51.216;6.778;2023-08-21T09:59:03;6.53;;;3.70;;
13753;SDS011;6948;51.216;6.778;2023-08-21T10:01:29;8.63;;;4.00;;
13753;SDS011;6948;51.216;6.778;2023-08-21T10:04:00;8.43;;;3.20;;
13753;SDS011;6948;51.216;6.778;2023-08-21T10:06:28;6.93;;;3.65;;
13753;SDS011;6948;51.216;6.778;2023-08-21T10:08:54;5.65;;;3.70;;
13753;SDS011;6948;51.216;6.778;2023-08-21T10:11:22;6.43;;;3.47;;
13753;SDS011;6948;51.216;6.778;2023-08-21T10:13:48;6.13;;;3.80;;
13753;SDS011;6948;51.216;6.778;2023-08-21T10:16:16;8.43;;;3.80;;
13753;SDS011;6948;51.216;6.778;2023-08-21T10:18:43;6.00;;;3.60;;
13753;SDS011;6948;51.216;6.778;2023-08-21T10:21:19;5.88;;;3.97;;
13753;SDS011;6948;51.216;6.778;2023-08-21T10:23:47;6.40;;;3.40;;
13753;SDS011;6948;51.216;6.778;2023-08-21T10:26:13;9.10;;;3.60;;
13753;SDS011;6948;51.216;6.778;2023-08-21T10:28:41;7.93;;;3.40;;
13753;SDS011;6948;51.216;6.778;2023-08-21T10:31:28;6.90;;;3.13;;
13753;SDS011;6948;51.216;6.778;2023-08-21T10:33:54;10.23;;;3.35;;
13753;SDS011;6948;51.216;6.778;2023-08-21T10:39:13;9.32;;;3.38;;
13753;SDS011;6948;51.216;6.778;2023-08-21T10:41:41;6.72;;;3.17;;
13753;SDS011;6948;51.216;6.778;2023-08-21T10:44:23;5.55;;;3.08;;
13753;SDS011;6948;51.216;6.778;2023-08-21T10:49:51;7.65;;;3.95;;
13753;SDS011;6948;51.216;6.778;2023-08-21T10:52:27;8.50;;;3.20;;
13753;SDS011;6948;51.216;6.778;2023-08-21T10:54:59;7.60;;;3.42;;
13753;SDS011;6948;51.216;6.778;2023-08-21T10:57:46;7.93;;;3.42;;
13753;SDS011;6948;51.216;6.778;2023-08-21T11:00:13;6.30;;;3.17;;
13753;SDS011;6948;51.216;6.778;2023-08-21T11:02:41;5.78;;;3.20;;
13753;SDS011;6948;51.216;6.778;2023-08-21T11:05:08;7.20;;;3.22;;
13753;SDS011;6948;51.216;6.778;2023-08-21T11:07:36;6.15;;;3.30;;
13753;SDS011;6948;51.216;6.778;2023-08-21T11:10:03;8.90;;;2.78;;
13753;SDS011;6948;51.216;6.778;2023-08-21T11:12:30;8.07;;;3.60;;
13753;SDS011;6948;51.216;6.778;2023-08-21T11:14:56;8.60;;;3.15;;
13753;SDS011;6948;51.216;6.778;2023-08-21T11:17:22;5.82;;;3.00;;
13753;SDS011;6948;51.216;6.778;2023-08-21T11:19:48;4.60;;;2.92;;
13753;SDS011;6948;51.216;6.778;2023-08-21T11:22:15;6.63;;;2.90;;
13753;SDS011;6948;51.216;6.778;2023-08-21T11:24:49;7.72;;;3.10;;
13753;SDS011;6948;51.216;6.778;2023-08-21T11:27:17;5.10;;;2.55;;
13753;SDS011;6948;51.216;6.778;2023-08-21T11:29:44;6.15;;;3.17;;
13753;SDS011;6948;51.216;6.778;2023-08-21T11:32:12;7.05;;;3.20;;
13753;SDS011;6948;51.216;6.778;2023-08-21T11:34:39;10.10;;;3.00;;
13753;SDS011;6948;51.216;6.778;2023-08-21T11:37:06;8.30;;;3.10;;
13753;SDS011;6948;51.216;6.778;2023-08-21T11:39:48;7.65;;;3.08;;
13753;SDS011;6948;51.216;6.778;2023-08-21T11:42:15;5.85;;;2.45;;
13753;SDS011;6948;51.216;6.778;2023-08-21T11:44:43;8.35;;;2.90;;
13753;SDS011;6948;51.216;6.778;2023-08-21T11:47:09;6.50;;;2.72;;
13753;SDS011;6948;51.216;6.778;2023-08-21T11:49:36;9.57;;;3.05;;
13753;SDS011;6948;51.216;6.778;2023-08-21T11:52:03;9.95;;;3.08;;
13753;SDS011;6948;51.216;6.778;2023-08-21T11:54:33;9.20;;;3.33;;
13753;SDS011;6948;51.216;6.778;2023-08-21T11:57:00;5.40;;;3.30;;
13753;SDS011;6948;51.216;6.778;2023-08-21T11:59:37;6.70;;;3.00;;
13753;SDS011;6948;51.216;6.778;2023-08-21T12:04:53;7.07;;;3.30;;
13753;SDS011;6948;51.216;6.778;2023-08-21T12:07:19;6.55;;;3.38;;
13753;SDS011;6948;51.216;6.778;2023-08-21T12:09:46;7.28;;;3.47;;
13753;SDS011;6948;51.216;6.778;2023-08-21T12:12:16;10.25;;;3.20;;
13753;SDS011;6948;51.216;6.778;2023-08-21T12:14:42;5.22;;;3.40;;
13753;SDS011;6948;51.216;6.778;2023-08-21T12:17:08;6.15;;;3.08;;
13753;SDS011;6948;51.216;6.778;2023-08-21T12:19:34;7.35;;;3.22;;
13753;SDS011;6948;51.216;6.778;2023-08-21T12:22:00;8.13;;;3.28;;
13753;SDS011;6948;51.216;6.778;2023-08-21T12:24:27;6.10;;;2.80;;
13753;SDS011;6948;51.216;6.778;2023-08-21T12:26:53;6.72;;;3.40;;
13753;SDS011;6948;51.216;6.778;2023-08-21T12:29:19;5.78;;;2.80;;
13753;SDS011;6948;51.216;6.778;2023-08-21T12:31:45;7.47;;;3.17;;
13753;SDS011;6948;51.216;6.778;2023-08-21T12:34:12;7.40;;;3.00;;
13753;SDS011;6948;51.216;6.778;2023-08-21T12:36:38;8.18;;;3.22;;
13753;SDS011;6948;51.216;6.778;2023-08-21T12:39:04;8.40;;;3.55;;
13753;SDS011;6948;51.216;6.778;2023-08-21T12:41:31;8.02;;;3.97;;
13753;SDS011;6948;51.216;6.778;2023-08-21T12:43:59;6.43;;;3.40;;
13753;SDS011;6948;51.216;6.778;2023-08-21T12:46:26;5.78;;;3.20;;
13753;SDS011;6948;51.216;6.778;2023-08-21T12:48:53;7.68;;;3.35;;
13753;SDS011;6948;51.216;6.778;2023-08-21T12:51:19;9.43;;;3.22;;
13753;SDS011;6948;51.216;6.778;2023-08-21T12:53:45;6.88;;;3.03;;
13753;SDS011;6948;51.216;6.778;2023-08-21T12:56:11;8.43;;;3.72;;
13753;SDS011;6948;51.216;6.778;2023-08-21T12:58:37;7.55;;;3.35;;
13753;SDS011;6948;51.216;6.778;2023-08-21T13:01:03;7.88;;;3.83;;
13753;SDS011;6948;51.216;6.778;2023-08-21T13:03:30;8.77;;;3.50;;
13753;SDS011;6948;51.216;6.778;2023-08-21T13:05:56;6.85;;;3.40;;
13753;SDS011;6948;51.216;6.778;2023-08-21T13:08:22;10.30;;;3.70;;
13753;SDS011;6948;51.216;6.778;2023-08-21T13:10:48;7.85;;;3.28;;
13753;SDS011;6948;51.216;6.778;2023-08-21T13:13:14;9.93;;;3.10;;
13753;SDS011;6948;51.216;6.778;2023-08-21T13:15:40;6.90;;;3.13;;
13753;SDS011;6948;51.216;6.778;2023-08-21T13:18:09;7.55;;;3.00;;
13753;SDS011;6948;51.216;6.778;2023-08-21T13:20:36;7.05;;;3.28;;
13753;SDS011;6948;51.216;6.778;2023-08-21T13:23:03;6.20;;;3.00;;
13753;SDS011;6948;51.216;6.778;2023-08-21T13:25:29;5.20;;;2.95;;
13753;SDS011;6948;51.216;6.778;2023-08-21T13:27:55;8.02;;;3.15;;
13753;SDS011;6948;51.216;6.778;2023-08-21T13:30:21;7.43;;;2.83;;
13753;SDS011;6948;51.216;6.778;2023-08-21T13:32:48;9.15;;;3.08;;
13753;SDS011;6948;51.216;6.778;2023-08-21T13:35:14;7.22;;;3.00;;
13753;SDS011;6948;51.216;6.778;2023-08-21T13:37:42;7.00;;;3.20;;
13753;SDS011;6948;51.216;6.778;2023-08-21T13:40:08;7.57;;;2.97;;
13753;SDS011;6948;51.216;6.778;2023-08-21T13:42:37;4.65;;;3.10;;
13753;SDS011;6948;51.216;6.778;2023-08-21T13:45:06;6.18;;;2.90;;
13753;SDS011;6948;51.216;6.778;2023-08-21T13:47:33;7.68;;;3.40;;
13753;SDS011;6948;51.216;6.778;2023-08-21T13:49:59;10.30;;;3.38;;
13753;SDS011;6948;51.216;6.778;2023-08-21T13:52:25;9.95;;;3.80;;
13753;SDS011;6948;51.216;6.778;2023-08-21T13:54:51;8.32;;;3.20;;
13753;SDS011;6948;51.216;6.778;2023-08-21T13:57:17;8.15;;;3.38;;
13753;SDS011;6948;51.216;6.778;2023-08-21T13:59:43;7.78;;;3.58;;
13753;SDS011;6948;51.216;6.778;2023-08-21T14:02:09;9.90;;;3.25;;
13753;SDS011;6948;51.216;6.778;2023-08-21T14:04:35;9.43;;;3.75;;
13753;SDS011;6948;51.216;6.778;2023-08-21T14:07:02;6.63;;;3.40;;
13753;SDS011;6948;51.216;6.778;2023-08-21T14:09:28;6.80;;;3.33;;
13753;SDS011;6948;51.216;6.778;2023-08-21T14:11:54;7.30;;;3.20;;
13753;SDS011;6948;51.216;6.778;2023-08-21T14:14:20;8.48;;;3.10;;
13753;SDS011;6948;51.216;6.778;2023-08-21T14:16:46;7.05;;;3.50;;
13753;SDS011;6948;51.216;6.778;2023-08-21T14:19:12;7.78;;;3.00;;
13753;SDS011;6948;51.216;6.778;2023-08-21T14:21:38;8.30;;;3.33;;
13753;SDS011;6948;51.216;6.778;2023-08-21T14:24:04;9.35;;;3.20;;
13753;SDS011;6948;51.216;6.778;2023-08-21T14:26:30;8.32;;;2.97;;
13753;SDS011;6948;51.216;6.778;2023-08-21T14:28:56;10.43;;;3.22;;
13753;SDS011;6948;51.216;6.778;2023-08-21T14:31:22;8.27;;;3.30;;
13753;SDS011;6948;51.216;6.778;2023-08-21T14:33:48;7.40;;;3.10;;
13753;SDS011;6948;51.216;6.778;2023-08-21T14:36:15;7.30;;;3.40;;
13753;SDS011;6948;51.216;6.778;2023-08-21T14:38:41;7.20;;;3.28;;
13753;SDS011;6948;51.216;6.778;2023-08-21T14:41:07;8.40;;;3.00;;
13753;SDS011;6948;51.216;6.778;2023-08-21T14:43:33;6.10;;;3.15;;
13753;SDS011;6948;51.216;6.778;2023-08-21T14:45:59;9.95;;;3.22;;
13753;SDS011;6948;51.216;6.778;2023-08-21T14:48:25;9.32;;;3.60;;
13753;SDS011;6948;51.216;6.778;2023-08-21T14:50:51;8.80;;;3.10;;
13753;SDS011;6948;51.216;6.778;2023-08-21T14:53:17;8.88;;;2.92;;
13753;SDS011;6948;51.216;6.778;2023-08-21T14:55:43;8.52;;;3.40;;
13753;SDS011;6948;51.216;6.778;2023-08-21T14:58:10;7.65;;;2.78;;
13753;SDS011;6948;51.216;6.778;2023-08-21T15:00:36;7.80;;;2.83;;
13753;SDS011;6948;51.216;6.778;2023-08-21T15:03:02;6.88;;;3.40;;
13753;SDS011;6948;51.216;6.778;2023-08-21T15:05:28;6.95;;;3.13;;
13753;SDS011;6948;51.216;6.778;2023-08-21T15:07:55;7.05;;;3.20;;
13753;SDS011;6948;51.216;6.778;2023-08-21T15:10:21;9.40;;;3.10;;